createdAt,value
2023-04-29T00:00:19.532Z,11.10
2023-04-29T00:01:19.502Z,10.50
2023-04-29T00:02:19.579Z,10.40
2023-04-29T00:03:19.781Z,10.70
2023-04-29T00:04:19.570Z,10.20
2023-04-29T00:05:19.595Z,10.10
2023-04-29T00:06:19.457Z,11.20
2023-04-29T00:07:19.423Z,10.70
2023-04-29T00:08:19.398Z,10.50
2023-04-29T00:09:19.433Z,10.70
2023-04-29T00:10:19.375Z,13.10
2023-04-29T00:11:19.357Z,11.10
2023-04-29T00:12:19.406Z,11.80
2023-04-29T00:13:19.399Z,11.70
2023-04-29T00:14:19.348Z,12.70
2023-04-29T00:15:19.348Z,12.00
2023-04-29T00:16:19.336Z,11.90
2023-04-29T00:17:19.298Z,12.40
2023-04-29T00:18:19.314Z,12.60
2023-04-29T00:19:19.287Z,11.50
2023-04-29T00:20:19.271Z,13.60
2023-04-29T00:21:19.285Z,12.90
2023-04-29T00:22:19.231Z,12.40
2023-04-29T00:23:19.250Z,14.50
2023-04-29T00:24:19.223Z,12.40
2023-04-29T00:25:19.221Z,14.40
2023-04-29T00:26:19.208Z,11.90
2023-04-29T00:27:19.182Z,11.70
2023-04-29T00:28:19.256Z,12.10
2023-04-29T00:29:19.204Z,12.40
2023-04-29T00:30:19.216Z,12.80
2023-04-29T00:31:19.162Z,12.50
2023-04-29T00:32:19.154Z,15.30
2023-04-29T00:33:19.180Z,14.80
2023-04-29T00:34:19.087Z,14.50
2023-04-29T00:35:19.089Z,13.70
2023-04-29T00:36:19.067Z,15.70
2023-04-29T00:37:19.068Z,16.10
2023-04-29T00:38:19.084Z,15.10
2023-04-29T00:39:19.046Z,16.90
2023-04-29T00:40:19.253Z,15.90
2023-04-29T00:41:19.025Z,16.50
2023-04-29T00:42:19.011Z,16.90
2023-04-29T00:43:19.015Z,18.00
2023-04-29T00:44:18.995Z,16.40
2023-04-29T00:45:18.974Z,19.20
2023-04-29T00:46:18.973Z,16.90
2023-04-29T00:47:18.975Z,16.90
2023-04-29T00:48:18.944Z,17.60
2023-04-29T00:49:18.935Z,17.30
2023-04-29T00:50:19.203Z,18.40
2023-04-29T00:51:18.906Z,17.70
2023-04-29T00:52:18.892Z,19.70
2023-04-29T00:53:18.972Z,17.60
2023-04-29T00:54:18.900Z,17.40
2023-04-29T00:55:18.882Z,17.70
2023-04-29T00:56:18.869Z,20.00
2023-04-29T00:57:18.840Z,20.50
2023-04-29T00:58:18.957Z,19.90
2023-04-29T00:59:18.822Z,17.90
2023-04-29T01:00:18.809Z,18.80
2023-04-29T01:01:18.849Z,22.20
2023-04-29T01:02:18.877Z,19.60
2023-04-29T01:03:18.922Z,20.50
2023-04-29T01:04:18.791Z,22.00
2023-04-29T01:05:18.758Z,20.10
2023-04-29T01:06:18.740Z,17.70
2023-04-29T01:07:18.734Z,20.30
2023-04-29T01:08:18.873Z,18.70
2023-04-29T01:09:18.712Z,18.20
2023-04-29T01:10:18.718Z,20.00
2023-04-29T01:11:18.723Z,18.80
2023-04-29T01:12:18.678Z,20.20
2023-04-29T01:13:18.691Z,20.50
2023-04-29T01:14:18.667Z,17.80
2023-04-29T01:15:18.664Z,19.40
2023-04-29T01:16:18.696Z,18.40
2023-04-29T01:17:18.722Z,18.60
2023-04-29T01:18:18.638Z,17.80
2023-04-29T01:19:18.612Z,18.40
2023-04-29T01:20:18.607Z,17.80
2023-04-29T01:21:18.580Z,18.50
2023-04-29T06:02:15.830Z,47.50
2023-04-29T06:03:19.752Z,48.10
2023-04-29T06:04:18.444Z,58.30
2023-04-29T06:05:20.542Z,59.80
2023-04-29T06:06:17.877Z,57.50
2023-04-29T06:07:17.709Z,61.90
2023-04-29T06:08:16.700Z,66.10
2023-04-29T06:09:27.435Z,60.90
2023-04-29T06:10:19.868Z,59.30
2023-04-29T06:11:15.939Z,58.20
2023-04-29T06:12:19.738Z,58.50
2023-04-29T06:13:16.761Z,61.70
2023-04-29T06:14:17.006Z,56.00
2023-04-29T06:15:17.621Z,55.00
2023-04-29T06:16:16.321Z,51.10
2023-04-29T06:17:19.194Z,50.20
2023-04-29T06:18:16.370Z,52.20
2023-04-29T06:19:21.898Z,55.30
2023-04-29T06:20:30.358Z,53.70
2023-04-29T06:21:29.778Z,53.90
2023-04-29T06:22:45.421Z,52.10
2023-04-29T06:23:17.306Z,50.30
2023-04-29T06:26:42.513Z,41.30
2023-04-29T06:27:47.885Z,40.90
2023-04-29T06:28:40.720Z,41.00
2023-04-29T06:29:40.711Z,42.70
2023-04-29T06:30:40.714Z,40.00
2023-04-29T06:31:40.779Z,42.70
2023-04-29T06:32:40.718Z,39.60
2023-04-29T06:33:40.671Z,43.90
2023-04-29T06:34:40.667Z,46.70
2023-04-29T06:35:40.651Z,40.80
2023-04-29T06:36:40.653Z,40.90
2023-04-29T06:37:40.637Z,39.80
2023-04-29T06:38:40.653Z,41.10
2023-04-29T06:39:40.606Z,42.20
2023-04-29T06:40:40.585Z,43.10
2023-04-29T06:41:40.585Z,40.90
2023-04-29T06:42:40.622Z,42.30
2023-04-29T06:43:40.547Z,43.00
2023-04-29T06:44:40.566Z,43.10
2023-04-29T06:45:40.519Z,47.90
2023-04-29T06:46:40.663Z,48.70
2023-04-29T06:47:40.558Z,49.60
2023-04-29T06:48:40.506Z,43.60
2023-04-29T06:49:40.483Z,42.50
2023-04-29T06:50:40.486Z,41.00
2023-04-29T06:51:40.481Z,39.50
2023-04-29T06:52:40.482Z,36.10
2023-04-29T06:53:40.485Z,33.60
2023-04-29T06:54:40.474Z,31.20
2023-04-29T06:55:40.462Z,28.10
2023-04-29T06:56:40.461Z,28.00
2023-04-29T06:57:40.431Z,31.20
2023-04-29T06:58:40.388Z,27.00
2023-04-29T06:59:40.397Z,29.00
2023-04-29T07:00:40.375Z,26.30
2023-04-29T07:01:42.634Z,27.80
2023-04-29T07:02:40.466Z,28.20
2023-04-29T07:03:40.553Z,26.40
2023-04-29T07:04:40.407Z,28.20
2023-04-29T07:05:40.342Z,27.20
2023-04-29T07:06:40.351Z,27.80
2023-04-29T07:07:40.291Z,27.00
2023-04-29T07:08:40.279Z,26.10
2023-04-29T07:09:40.274Z,26.40
2023-04-29T07:10:40.265Z,26.10
2023-04-29T07:11:40.256Z,26.40
2023-04-29T07:12:40.240Z,24.50
2023-04-29T07:13:40.244Z,26.10
2023-04-29T07:14:40.222Z,23.40
2023-04-29T07:15:40.229Z,26.60
2023-04-29T07:16:40.313Z,26.80
2023-04-29T07:17:40.231Z,27.20
2023-04-29T07:18:40.177Z,26.90
2023-04-29T07:19:40.160Z,25.90
2023-04-29T07:20:40.236Z,27.40
2023-04-29T07:21:40.147Z,26.80
2023-04-29T07:22:40.142Z,27.30
2023-04-29T07:23:40.117Z,28.20
2023-04-29T07:24:40.117Z,28.30
2023-04-29T07:25:40.127Z,28.70
2023-04-29T07:26:40.142Z,28.00
2023-04-29T07:27:40.082Z,29.40
2023-04-29T07:28:40.076Z,29.00
2023-04-29T07:29:40.061Z,28.20
2023-04-29T07:30:40.073Z,27.80
2023-04-29T07:31:40.044Z,27.30
2023-04-29T07:32:40.071Z,27.80
2023-04-29T07:33:40.007Z,27.20
2023-04-29T07:34:40.117Z,31.80
2023-04-29T07:35:40.035Z,28.80
2023-04-29T07:36:39.987Z,29.00
2023-04-29T07:37:41.538Z,28.80
2023-04-29T07:38:39.964Z,29.90
2023-04-29T07:39:40.011Z,30.20
2023-04-29T07:40:39.938Z,31.10
2023-04-29T07:41:40.004Z,32.70
2023-04-29T07:42:39.917Z,28.50
2023-04-29T07:43:42.201Z,28.80
2023-04-29T07:44:39.918Z,29.60
2023-04-29T07:45:39.944Z,30.50
2023-04-29T07:46:39.969Z,32.10
2023-04-29T07:47:39.931Z,29.90
2023-04-29T07:48:39.858Z,30.80
2023-04-29T07:49:39.837Z,29.90
2023-04-29T07:50:39.833Z,30.00
2023-04-29T07:51:39.823Z,26.60
2023-04-29T07:52:39.852Z,28.60
2023-04-29T07:53:39.807Z,28.30
2023-04-29T07:54:39.886Z,30.80
2023-04-29T07:55:39.780Z,29.40
2023-04-29T07:56:39.805Z,27.90
2023-04-29T07:57:39.775Z,29.00
2023-04-29T07:58:39.792Z,30.00
2023-04-29T07:59:39.729Z,26.50
2023-04-29T08:00:39.764Z,25.50
2023-04-29T08:01:39.839Z,26.80
2023-04-29T08:02:39.875Z,28.80
2023-04-29T08:03:41.641Z,27.10
2023-04-29T08:04:39.994Z,26.90
2023-04-29T08:05:39.796Z,28.70
2023-04-29T08:06:39.660Z,25.50
2023-04-29T08:07:39.636Z,26.30
2023-04-29T08:08:39.630Z,24.30
2023-04-29T08:09:39.602Z,25.40
2023-04-29T08:10:39.616Z,28.10
2023-04-29T08:11:39.602Z,25.20
2023-04-29T08:12:39.586Z,25.00
2023-04-29T08:13:39.565Z,25.70
2023-04-29T08:14:39.998Z,23.60
2023-04-29T08:15:39.544Z,25.30
2023-04-29T08:16:39.572Z,26.10
2023-04-29T08:17:39.587Z,25.20
2023-04-29T08:18:39.513Z,26.60
2023-04-29T08:19:39.558Z,22.80
2023-04-29T08:20:39.549Z,26.10
2023-04-29T08:21:39.515Z,23.20
2023-04-29T08:22:39.480Z,24.00
2023-04-29T08:23:39.528Z,25.20
2023-04-29T08:24:39.472Z,29.00
2023-04-29T08:25:39.448Z,24.80
2023-04-29T08:26:39.458Z,27.30
2023-04-29T08:27:39.417Z,24.80
2023-04-29T08:28:39.679Z,25.40
2023-04-29T08:29:39.401Z,27.10
2023-04-29T08:30:39.402Z,24.90
2023-04-29T08:31:39.412Z,24.20
2023-04-29T08:32:39.415Z,26.30
2023-04-29T08:33:39.409Z,23.30
2023-04-29T08:34:39.365Z,24.20
2023-04-29T08:35:39.318Z,24.20
2023-04-29T08:36:39.345Z,24.50
2023-04-29T08:37:39.310Z,22.20
2023-04-29T08:38:39.297Z,23.10
2023-04-29T08:39:39.276Z,23.20
2023-04-29T08:40:39.275Z,23.80
2023-04-29T08:41:39.336Z,25.10
2023-04-29T08:42:39.248Z,25.80
2023-04-29T08:43:39.243Z,25.10
2023-04-29T08:44:39.260Z,22.80
2023-04-29T08:45:39.275Z,23.60
2023-04-29T08:46:39.248Z,21.90
2023-04-29T08:47:39.249Z,23.60
2023-04-29T08:48:39.251Z,23.10
2023-04-29T08:49:39.178Z,22.50
2023-04-29T08:50:39.212Z,22.20
2023-04-29T08:51:39.176Z,22.90
2023-04-29T08:52:39.151Z,23.40
2023-04-29T08:53:39.134Z,23.70
2023-04-29T08:54:39.159Z,23.00
2023-04-29T08:55:39.376Z,20.50
2023-04-29T08:56:39.119Z,21.30
2023-04-29T08:57:39.102Z,21.30
2023-04-29T08:58:39.073Z,20.40
2023-04-29T08:59:39.140Z,21.10
2023-04-29T09:00:39.047Z,21.00
2023-04-29T09:01:39.192Z,20.80
2023-04-29T09:02:39.110Z,20.80
2023-04-29T09:03:39.209Z,21.50
2023-04-29T09:04:39.162Z,23.60
2023-04-29T09:05:38.993Z,21.70
2023-04-29T09:06:39.022Z,19.80
2023-04-29T09:07:38.985Z,21.60
2023-04-29T09:08:38.952Z,19.50
2023-04-29T09:09:38.960Z,19.90
2023-04-29T09:10:38.942Z,20.80
2023-04-29T09:11:38.982Z,21.30
2023-04-29T09:12:38.954Z,20.90
2023-04-29T09:13:38.900Z,19.90
2023-04-29T09:14:38.928Z,20.50
2023-04-29T09:15:38.878Z,22.10
2023-04-29T09:16:38.952Z,22.00
2023-04-29T09:17:38.950Z,19.70
2023-04-29T09:18:38.856Z,18.60
2023-04-29T09:19:38.835Z,19.30
2023-04-29T09:20:38.831Z,18.60
2023-04-29T09:21:39.045Z,22.30
2023-04-29T09:22:38.844Z,21.90
2023-04-29T09:23:38.808Z,26.20
2023-04-29T09:24:38.798Z,20.30
2023-04-29T09:25:38.797Z,19.70
2023-04-29T09:26:38.774Z,19.60
2023-04-29T09:27:38.758Z,21.00
2023-04-29T09:28:38.756Z,19.10
2023-04-29T09:29:38.735Z,19.80
2023-04-29T09:30:38.726Z,18.40
2023-04-29T09:31:38.833Z,17.60
2023-04-29T09:32:39.431Z,17.30
2023-04-29T09:33:38.692Z,19.20
2023-04-29T09:34:38.689Z,17.80
2023-04-29T09:35:38.671Z,21.40
2023-04-29T09:36:38.658Z,19.60
2023-04-29T09:37:38.644Z,19.60
2023-04-29T09:38:38.632Z,19.90
2023-04-29T09:39:38.611Z,21.80
2023-04-29T09:40:50.066Z,20.70
2023-04-29T09:41:39.730Z,21.50
2023-04-29T09:42:38.598Z,25.00
2023-04-29T09:43:38.593Z,22.40
2023-04-29T09:44:38.646Z,22.20
2023-04-29T09:45:38.558Z,22.30
2023-04-29T09:46:38.673Z,22.70
2023-04-29T09:47:38.578Z,23.20
2023-04-29T09:48:38.540Z,23.30
2023-04-29T09:49:38.523Z,24.60
2023-04-29T09:50:38.557Z,26.70
2023-04-29T09:51:38.563Z,27.60
2023-04-29T09:52:38.471Z,27.20
2023-04-29T09:53:38.475Z,24.80
2023-04-29T09:54:38.637Z,26.10
2023-04-29T09:55:38.448Z,27.30
2023-04-29T09:56:38.444Z,26.50
2023-04-29T09:57:38.441Z,24.20
2023-04-29T09:58:38.403Z,25.00
2023-04-29T09:59:38.479Z,23.20
2023-04-29T10:00:38.394Z,22.60
2023-04-29T10:01:38.417Z,25.20
2023-04-29T10:02:38.411Z,25.00
2023-04-29T10:03:39.037Z,25.40
2023-04-29T10:04:40.094Z,24.80
2023-04-29T10:05:38.335Z,26.00
2023-04-29T10:06:38.345Z,26.20
2023-04-29T10:07:38.309Z,26.10
2023-04-29T10:08:38.309Z,25.70
2023-04-29T10:09:38.285Z,25.30
2023-04-29T10:10:38.280Z,26.60
2023-04-29T10:11:38.923Z,26.80
2023-04-29T10:12:38.263Z,26.60
2023-04-29T10:13:38.452Z,25.10
2023-04-29T10:14:38.230Z,30.20
2023-04-29T10:15:38.262Z,26.10
2023-04-29T10:16:38.357Z,30.40
2023-04-29T10:17:38.201Z,26.40
2023-04-29T10:18:38.248Z,31.80
2023-04-29T10:19:38.225Z,29.60
2023-04-29T10:20:38.182Z,25.60
2023-04-29T10:21:38.187Z,27.80
2023-04-29T10:22:38.158Z,26.30
2023-04-29T10:23:38.133Z,25.70
2023-04-29T10:24:38.133Z,28.20
2023-04-29T10:25:38.116Z,27.90
2023-04-29T10:26:38.129Z,28.10
2023-04-29T10:27:38.082Z,29.10
2023-04-29T10:28:38.087Z,28.50
2023-04-29T10:29:38.063Z,27.00
2023-04-29T10:30:38.060Z,28.60
2023-04-29T10:31:38.098Z,30.20
2023-04-29T10:32:49.882Z,29.00
2023-04-29T10:33:39.100Z,30.80
2023-04-29T10:34:38.013Z,30.30
2023-04-29T10:35:38.007Z,29.60
2023-04-29T10:36:37.992Z,28.70
2023-04-29T10:37:38.028Z,30.20
2023-04-29T10:38:38.004Z,29.80
2023-04-29T10:39:38.000Z,29.40
2023-04-29T10:40:37.979Z,27.90
2023-04-29T10:41:37.952Z,28.20
2023-04-29T10:42:37.957Z,28.50
2023-04-29T10:43:37.913Z,29.50
2023-04-29T10:44:37.930Z,30.30
2023-04-29T10:45:37.920Z,29.40
2023-04-29T10:46:38.055Z,28.50
2023-04-29T10:47:37.924Z,31.10
2023-04-29T10:48:37.893Z,28.70
2023-04-29T10:49:37.871Z,29.20
2023-04-29T10:50:37.861Z,29.90
2023-04-29T10:51:37.882Z,30.20
2023-04-29T10:52:37.832Z,27.60
2023-04-29T10:53:37.829Z,31.10
2023-04-29T10:54:37.800Z,30.90
2023-04-29T10:55:37.825Z,31.10
2023-04-29T10:56:37.851Z,33.30
2023-04-29T10:57:37.788Z,35.50
2023-04-29T10:58:37.779Z,31.40
2023-04-29T10:59:37.748Z,36.10
2023-04-29T11:00:37.744Z,33.70
2023-04-29T11:01:38.270Z,33.60
2023-04-29T11:02:37.778Z,31.90
2023-04-29T11:03:37.865Z,35.70
2023-04-29T11:04:37.708Z,32.20
2023-04-29T11:05:37.690Z,32.80
2023-04-29T11:06:37.779Z,33.60
2023-04-29T11:07:37.676Z,31.70
2023-04-29T11:08:37.678Z,30.80
2023-04-29T11:09:37.628Z,33.00
2023-04-29T11:10:37.617Z,32.00
2023-04-29T11:11:37.620Z,34.30
2023-04-29T11:12:37.597Z,30.20
2023-04-29T11:13:37.587Z,34.70
2023-04-29T11:14:37.703Z,32.40
2023-04-29T11:15:37.561Z,35.20
2023-04-29T11:17:37.585Z,39.10
2023-04-29T11:18:37.559Z,38.10
2023-04-29T11:19:37.520Z,41.10
2023-04-29T11:20:37.517Z,45.00
2023-04-29T11:21:37.495Z,43.90
2023-04-29T11:22:37.489Z,37.50
2023-04-29T11:23:37.563Z,42.10
2023-04-29T11:24:37.469Z,41.40
2023-04-29T11:25:39.504Z,42.00
2023-04-29T11:26:37.497Z,43.50
2023-04-29T11:27:37.425Z,40.00
2023-04-29T11:28:37.449Z,42.60
2023-04-29T11:29:37.425Z,37.50
2023-04-29T11:30:37.403Z,36.30
2023-04-29T11:31:37.542Z,32.90
2023-04-29T11:32:37.713Z,34.40
2023-04-29T11:33:37.495Z,39.20
2023-04-29T11:34:37.385Z,30.20
2023-04-29T11:35:37.344Z,28.60
2023-04-29T11:36:37.337Z,29.30
2023-04-29T11:37:37.338Z,32.40
2023-04-29T11:38:37.310Z,25.60
2023-04-29T11:39:37.298Z,29.40
2023-04-29T11:40:37.301Z,28.00
2023-04-29T11:41:37.284Z,27.90
2023-04-29T11:42:37.267Z,29.40
2023-04-29T11:43:37.248Z,31.50
2023-04-29T11:44:37.320Z,29.90
2023-04-29T11:45:37.278Z,31.70
2023-04-29T11:46:37.347Z,27.20
2023-04-29T11:47:37.309Z,30.60
2023-04-29T11:48:37.242Z,29.70
2023-04-29T11:49:37.223Z,27.70
2023-04-29T11:50:37.237Z,27.80
2023-04-29T11:51:37.177Z,31.30
2023-04-29T11:52:37.316Z,30.80
2023-04-29T11:53:37.237Z,28.60
2023-04-29T11:54:37.146Z,26.60
2023-04-29T11:55:37.136Z,29.10
2023-04-29T11:56:37.148Z,30.50
2023-04-29T11:57:37.126Z,29.30
2023-04-29T11:58:37.218Z,24.60
2023-04-29T11:59:37.097Z,26.60
2023-04-29T12:00:37.071Z,30.90
2023-04-29T12:01:37.056Z,27.40
2023-04-29T12:02:37.156Z,26.50
2023-04-29T12:03:37.311Z,30.50
2023-04-29T12:04:37.159Z,30.90
2023-04-29T12:05:37.088Z,33.00
2023-04-29T12:06:37.018Z,35.30
2023-04-29T12:07:37.228Z,44.20
2023-04-29T12:08:37.009Z,48.70
2023-04-29T12:09:37.002Z,55.50
2023-04-29T12:10:36.984Z,54.70
2023-04-29T12:11:36.942Z,64.90
2023-04-29T12:12:36.951Z,62.80
2023-04-29T12:13:36.932Z,67.30
2023-04-29T12:14:36.911Z,69.60
2023-04-29T12:15:38.926Z,77.20
2023-04-29T12:16:37.035Z,69.60
2023-04-29T12:17:36.935Z,69.20
2023-04-29T12:18:36.891Z,65.50
2023-04-29T12:19:36.856Z,68.90
2023-04-29T12:20:36.860Z,67.10
2023-04-29T12:21:36.843Z,66.70
2023-04-29T12:22:36.888Z,62.90
2023-04-29T12:23:36.820Z,65.60
2023-04-29T12:24:36.813Z,65.50
2023-04-29T12:25:36.802Z,64.00
2023-04-29T12:26:36.788Z,69.70
2023-04-29T12:27:36.884Z,60.90
2023-04-29T12:28:36.755Z,67.70
2023-04-29T12:29:36.762Z,66.30
2023-04-29T12:30:36.751Z,70.70
2023-04-29T12:31:36.795Z,72.10
2023-04-29T12:32:36.793Z,72.40
2023-04-29T12:33:36.705Z,69.40
2023-04-29T12:34:36.696Z,62.20
2023-04-29T12:35:36.772Z,68.70
2023-04-29T12:36:36.668Z,58.10
2023-04-29T12:37:36.656Z,61.70
2023-04-29T12:38:36.658Z,66.70
2023-04-29T12:39:36.633Z,73.10
2023-04-29T12:40:36.634Z,74.80
2023-04-29T12:41:36.627Z,81.10
2023-04-29T12:42:36.607Z,85.00
2023-04-29T12:43:36.592Z,88.30
2023-04-29T12:44:36.600Z,85.00
2023-04-29T12:45:36.587Z,90.10
2023-04-29T12:46:36.599Z,85.00
2023-04-29T12:47:36.561Z,89.50
2023-04-29T12:48:36.563Z,93.50
2023-04-29T12:49:36.557Z,87.70
2023-04-29T12:50:36.532Z,82.00
2023-04-29T12:51:36.617Z,85.40
2023-04-29T12:52:36.982Z,83.30
2023-04-29T12:53:36.497Z,81.90
2023-04-29T12:54:36.458Z,81.30
2023-04-29T12:55:36.486Z,84.70
2023-04-29T12:56:36.446Z,78.20
2023-04-29T12:57:36.433Z,82.20
2023-04-29T12:58:36.710Z,83.30
2023-04-29T12:59:36.414Z,79.50
2023-04-29T13:00:36.412Z,86.90
2023-04-29T13:01:36.565Z,79.30
2023-04-29T13:02:36.902Z,85.80
2023-04-29T13:03:36.566Z,84.70
2023-04-29T13:04:36.504Z,82.30
2023-04-29T13:05:36.409Z,79.20
2023-04-29T13:06:36.407Z,84.40
2023-04-29T13:07:37.115Z,83.10
2023-04-29T13:08:36.306Z,77.30
2023-04-29T13:09:36.298Z,82.70
2023-04-29T13:10:36.305Z,77.90
2023-04-29T13:11:36.296Z,79.10
2023-04-29T13:12:36.283Z,73.30
2023-04-29T13:13:36.252Z,73.80
2023-04-29T13:14:36.239Z,74.70
2023-04-29T13:15:36.331Z,76.60
2023-04-29T13:16:36.729Z,76.70
2023-04-29T13:17:36.240Z,77.20
2023-04-29T13:18:36.553Z,77.50
2023-04-29T13:19:50.280Z,77.40
2023-04-29T13:20:41.389Z,71.80
2023-04-29T13:21:37.172Z,78.00
2023-04-29T13:22:36.150Z,77.50
2023-04-29T13:23:36.157Z,79.00
2023-04-29T13:24:36.127Z,81.60
2023-04-29T13:25:36.157Z,77.40
2023-04-29T13:26:36.109Z,70.50
2023-04-29T13:27:36.099Z,76.80
2023-04-29T13:28:36.084Z,80.00
2023-04-29T13:29:36.075Z,90.80
2023-04-29T13:30:36.092Z,87.30
2023-04-29T13:31:36.105Z,83.40
2023-04-29T13:32:43.985Z,91.50
2023-04-29T13:33:39.799Z,90.60
2023-04-29T13:34:36.016Z,89.90
2023-04-29T13:35:36.050Z,92.70
2023-04-29T13:36:36.072Z,95.90
2023-04-29T13:37:36.171Z,96.10
2023-04-29T13:38:36.860Z,95.90
2023-04-29T13:39:38.324Z,102.10
2023-04-29T13:40:39.285Z,100.90
2023-04-29T13:41:37.302Z,100.30
2023-04-29T13:42:45.286Z,99.70
2023-04-29T13:43:39.023Z,97.10
2023-04-29T13:44:50.979Z,90.90
2023-04-29T13:45:39.980Z,96.20
2023-04-29T13:46:38.053Z,96.50
2023-04-29T13:47:45.983Z,96.10
2023-04-29T13:49:10.263Z,95.70
2023-04-29T13:50:22.539Z,96.10
2023-04-29T13:51:14.526Z,99.10
2023-04-29T13:52:20.281Z,92.90
2023-04-29T13:53:19.317Z,79.90
2023-04-29T13:57:59.148Z,73.60
2023-04-29T13:59:44.841Z,82.60
2023-04-29T14:02:36.809Z,66.50
2023-04-29T14:03:36.083Z,62.00
2023-04-29T14:04:35.832Z,60.80
2023-04-29T14:05:35.910Z,61.70
2023-04-29T14:06:35.682Z,62.50
2023-04-29T14:07:35.654Z,65.40
2023-04-29T14:08:35.664Z,61.90
2023-04-29T14:09:35.637Z,65.00
2023-04-29T14:10:35.659Z,65.20
2023-04-29T14:11:35.611Z,75.30
2023-04-29T14:12:35.597Z,81.00
2023-04-29T14:13:35.596Z,80.40
2023-04-29T14:14:35.577Z,78.70
2023-04-29T14:15:35.622Z,82.40
2023-04-29T14:16:35.558Z,77.10
2023-04-29T14:17:35.584Z,72.90
2023-04-29T14:18:35.540Z,74.30
2023-04-29T14:19:35.529Z,76.10
2023-04-29T14:20:35.524Z,72.20
2023-04-29T14:21:35.500Z,73.10
2023-04-29T14:22:35.485Z,72.00
2023-04-29T14:23:35.480Z,68.70
2023-04-29T14:24:35.553Z,71.40
2023-04-29T14:25:35.472Z,72.70
2023-04-29T14:26:35.444Z,73.30
2023-04-29T14:27:35.457Z,75.70
2023-04-29T14:28:35.417Z,71.60
2023-04-29T14:29:35.412Z,67.50
2023-04-29T14:30:35.408Z,70.80
2023-04-29T14:31:35.548Z,72.10
2023-04-29T14:32:35.397Z,69.80
2023-04-29T14:33:35.364Z,67.50
2023-04-29T14:34:35.357Z,64.20
2023-04-29T14:35:35.397Z,67.40
2023-04-29T14:36:35.365Z,60.90
2023-04-29T14:37:35.331Z,60.40
2023-04-29T14:38:35.386Z,61.70
2023-04-29T14:39:35.362Z,64.90
2023-04-29T14:40:35.310Z,64.40
2023-04-29T14:41:35.280Z,62.10
2023-04-29T14:42:35.270Z,59.90
2023-04-29T14:43:35.255Z,59.20
2023-04-29T14:44:35.288Z,58.50
2023-04-29T14:45:35.251Z,54.70
2023-04-29T14:46:35.311Z,56.40
2023-04-29T14:47:35.246Z,57.20
2023-04-29T14:48:35.202Z,55.50
2023-04-29T14:49:35.191Z,61.30
2023-04-29T14:50:35.189Z,56.50
2023-04-29T14:51:35.178Z,56.40
2023-04-29T14:52:35.158Z,53.40
2023-04-29T14:53:35.142Z,48.50
2023-04-29T14:54:35.158Z,49.60
2023-04-29T14:55:35.145Z,49.80
2023-04-29T14:56:35.120Z,49.10
2023-04-29T14:57:35.114Z,47.40
2023-04-29T14:58:35.433Z,50.90
2023-04-29T14:59:35.070Z,49.80
2023-04-29T15:00:35.083Z,52.30
2023-04-29T15:01:35.077Z,50.40
2023-04-29T15:02:35.090Z,54.70
2023-04-29T15:04:36.115Z,51.90
2023-04-29T15:05:35.153Z,48.60
2023-04-29T15:06:35.096Z,47.60
2023-04-29T15:07:34.991Z,47.40
2023-04-29T15:08:34.970Z,47.60
2023-04-29T15:09:35.005Z,52.00
2023-04-29T15:10:34.966Z,50.10
2023-04-29T15:11:34.933Z,52.20
2023-04-29T15:12:34.927Z,52.30
2023-04-29T15:13:34.917Z,54.60
2023-04-29T15:14:34.967Z,54.10
2023-04-29T15:15:34.915Z,52.80
2023-04-29T15:16:35.013Z,49.60
2023-04-29T15:17:35.018Z,50.40
2023-04-29T15:18:34.861Z,52.50
2023-04-29T15:19:34.852Z,52.60
2023-04-29T15:20:34.889Z,51.10
2023-04-29T15:21:34.816Z,47.90
2023-04-29T15:22:34.818Z,48.90
2023-04-29T15:23:34.881Z,48.80
2023-04-29T15:24:34.793Z,47.50
2023-04-29T15:25:36.007Z,51.00
2023-04-29T15:26:34.820Z,48.30
2023-04-29T15:27:34.768Z,50.40
2023-04-29T15:28:34.867Z,49.50
2023-04-29T15:29:34.743Z,49.50
2023-04-29T15:30:34.742Z,52.90
2023-04-29T15:31:34.775Z,50.60
2023-04-29T15:32:34.746Z,49.70
2023-04-29T15:33:34.711Z,52.70
2023-04-29T15:34:34.688Z,53.90
2023-04-29T15:35:34.820Z,56.40
2023-04-29T15:36:34.674Z,58.50
2023-04-29T15:37:34.764Z,54.50
2023-04-29T15:38:34.661Z,55.70
2023-04-29T15:39:34.659Z,53.60
2023-04-29T15:40:34.651Z,53.20
2023-04-29T15:41:34.621Z,58.50
2023-04-29T15:42:34.598Z,55.40
2023-04-29T15:43:34.634Z,55.50
2023-04-29T15:44:34.578Z,52.30
2023-04-29T15:45:34.594Z,54.00
2023-04-29T15:46:34.553Z,51.90
2023-04-29T15:47:34.660Z,52.70
2023-04-29T15:48:34.535Z,53.30
2023-04-29T15:49:34.568Z,54.60
2023-04-29T15:50:34.528Z,50.50
2023-04-29T15:51:34.507Z,51.70
2023-04-29T15:52:34.491Z,54.30
2023-04-29T15:53:34.491Z,53.80
2023-04-29T15:54:34.468Z,55.00
2023-04-29T15:55:34.671Z,54.20
2023-04-29T15:56:34.472Z,49.70
2023-04-29T15:57:34.441Z,52.80
2023-04-29T15:58:34.470Z,50.60
2023-04-29T15:59:34.427Z,52.10
2023-04-29T16:00:34.456Z,52.00
2023-04-29T16:01:36.309Z,57.00
2023-04-29T16:02:34.386Z,50.80
2023-04-29T16:03:34.447Z,51.50
2023-04-29T16:04:34.373Z,50.30
2023-04-29T16:05:34.377Z,55.70
2023-04-29T16:06:34.394Z,57.90
2023-04-29T16:07:35.515Z,53.40
2023-04-29T16:08:34.317Z,54.30
2023-04-29T16:09:34.324Z,51.60
2023-04-29T16:10:34.820Z,53.60
2023-04-29T16:11:34.290Z,55.10
2023-04-29T16:12:34.293Z,52.40
2023-04-29T16:13:36.234Z,51.20
2023-04-29T16:14:34.258Z,50.20
2023-04-29T16:15:34.251Z,49.90
2023-04-29T16:16:34.297Z,51.50
2023-04-29T16:17:34.281Z,47.50
2023-04-29T16:18:34.237Z,48.50
2023-04-29T16:19:36.618Z,50.90
2023-04-29T16:20:34.240Z,49.50
2023-04-29T16:21:34.195Z,49.20
2023-04-29T16:22:34.354Z,50.20
2023-04-29T16:23:34.178Z,49.30
2023-04-29T16:24:34.177Z,48.70
2023-04-29T16:25:34.154Z,51.10
2023-04-29T16:26:34.124Z,45.80
2023-04-29T16:27:34.351Z,50.10
2023-04-29T16:28:34.106Z,52.90
2023-04-29T16:29:34.116Z,50.10
2023-04-29T16:30:34.085Z,50.40
2023-04-29T16:31:34.127Z,48.40
2023-04-29T16:32:34.080Z,48.90
2023-04-29T16:33:34.054Z,49.30
2023-04-29T16:34:34.039Z,46.40
2023-04-29T16:35:34.052Z,44.00
2023-04-29T16:36:34.057Z,44.70
2023-04-29T16:37:34.063Z,43.90
2023-04-29T16:38:33.991Z,43.80
2023-04-29T16:39:33.983Z,42.70
2023-04-29T16:40:34.009Z,44.30
2023-04-29T16:41:33.958Z,43.90
2023-04-29T16:42:33.951Z,43.80
2023-04-29T16:43:33.945Z,47.10
2023-04-29T16:44:33.936Z,43.50
2023-04-29T16:45:33.977Z,46.10
2023-04-29T16:46:33.940Z,42.40
2023-04-29T16:47:33.955Z,42.80
2023-04-29T16:48:33.942Z,44.20
2023-04-29T16:49:33.923Z,42.90
2023-04-29T16:50:33.916Z,43.10
2023-04-29T16:51:33.858Z,38.80
2023-04-29T16:52:33.944Z,40.60
2023-04-29T16:53:34.034Z,42.30
2023-04-29T16:54:33.880Z,43.10
2023-04-29T16:55:33.867Z,40.40
2023-04-29T16:56:33.793Z,38.20
2023-04-29T16:57:33.799Z,41.60
2023-04-29T16:58:33.882Z,40.60
2023-04-29T16:59:33.804Z,42.30
2023-04-29T17:00:33.793Z,38.80
2023-04-29T17:01:33.782Z,42.40
2023-04-29T17:02:33.806Z,39.30
2023-04-29T17:03:33.739Z,41.80
2023-04-29T17:04:33.811Z,40.90
2023-04-29T17:05:33.743Z,39.60
2023-04-29T17:06:33.771Z,41.60
2023-04-29T17:07:33.688Z,38.50
2023-04-29T17:08:33.679Z,35.90
2023-04-29T17:09:33.660Z,38.10
2023-04-29T17:10:33.655Z,38.20
2023-04-29T17:11:33.642Z,36.60
2023-04-29T17:12:33.630Z,38.30
2023-04-29T17:13:33.638Z,33.30
2023-04-29T17:14:33.601Z,30.50
2023-04-29T17:15:33.637Z,28.00
2023-04-29T17:16:33.659Z,28.10
2023-04-29T17:17:33.628Z,29.70
2023-04-29T17:18:33.554Z,28.20
2023-04-29T17:19:33.550Z,30.00
2023-04-29T17:20:33.579Z,30.50
2023-04-29T17:21:33.534Z,27.40
2023-04-29T17:22:33.535Z,30.30
2023-04-29T17:23:33.509Z,28.70
2023-04-29T17:24:33.508Z,29.60
2023-04-29T17:25:33.515Z,25.70
2023-04-29T17:26:33.472Z,26.40
2023-04-29T17:27:33.467Z,24.10
2023-04-29T17:28:33.446Z,24.10
2023-04-29T17:29:33.445Z,25.60
2023-04-29T17:30:33.435Z,24.00
2023-04-29T17:31:33.460Z,25.70
2023-04-29T17:32:33.429Z,25.20
2023-04-29T17:33:33.388Z,23.50
2023-04-29T17:34:33.413Z,26.10
2023-04-29T17:35:33.401Z,26.10
2023-04-29T17:36:33.403Z,26.70
2023-04-29T17:37:33.355Z,24.10
2023-04-29T17:38:33.365Z,24.40
2023-04-29T17:39:33.335Z,23.00
2023-04-29T17:40:33.371Z,24.90
2023-04-29T17:41:33.348Z,25.60
2023-04-29T17:42:33.362Z,25.40
2023-04-29T17:43:33.396Z,23.90